Time;durP1;ratioP1;P1;durP2;ratioP2;P2;SDS_P1;SDS_P2;PMS_P1;PMS_P2;Temp;Humidity;BMP_temperature;BMP_pressure;BME280_temperature;BME280_humidity;BME280_pressure;Samples;Min_cycle;Max_cycle;Signal;HPM_P1;HPM_P2
2022/11/19 00:01:18;;;;;;;6.27;4.37;;;6.20;99.90;;;;;;5076574;28;20209;-77
2022/11/19 00:03:44;;;;;;;6.30;4.57;;;6.20;99.90;;;;;;5076294;28;20629;-76
2022/11/19 00:06:12;;;;;;;7.03;4.60;;;6.20;99.90;;;;;;5074967;28;20171;-77
2022/11/19 00:08:37;;;;;;;5.67;4.10;;;6.20;99.90;;;;;;5074867;28;20300;-76
2022/11/19 00:11:09;;;;;;;6.53;4.83;;;6.20;99.90;;;;;;5074821;28;20175;-77
2022/11/19 00:13:35;;;;;;;6.53;4.40;;;6.20;99.90;;;;;;5076081;28;20533;-77
2022/11/19 00:16:09;;;;;;;6.17;4.90;;;6.20;99.90;;;;;;5074789;28;20232;-77
2022/11/19 00:18:35;;;;;;;6.60;5.00;;;6.20;99.90;;;;;;5076141;28;20680;-77
2022/11/19 00:21:02;;;;;;;7.57;4.97;;;6.10;99.90;;;;;;5076033;28;20194;-76
2022/11/19 00:23:28;;;;;;;5.43;4.60;;;6.00;99.90;;;;;;5076148;28;20163;-77
2022/11/19 00:25:53;;;;;;;6.47;5.17;;;6.00;99.90;;;;;;5075915;28;20178;-76
2022/11/19 00:28:19;;;;;;;7.00;4.60;;;5.90;99.90;;;;;;5075669;28;20270;-77
2022/11/19 00:30:44;;;;;;;6.77;4.70;;;5.80;99.90;;;;;;5075874;28;20567;-77
2022/11/19 00:33:10;;;;;;;5.87;4.77;;;5.80;99.90;;;;;;5075935;28;20221;-77
2022/11/19 00:35:35;;;;;;;5.50;4.30;;;5.80;99.90;;;;;;5075890;28;20179;-76
2022/11/19 00:38:01;;;;;;;7.20;4.40;;;5.80;99.90;;;;;;5073999;28;20214;-77
2022/11/19 00:40:26;;;;;;;6.63;4.70;;;5.80;99.90;;;;;;5076018;28;20275;-77
2022/11/19 00:45:36;;;;;;;4.87;4.27;;;5.80;99.90;;;;;;5076046;28;20166;-77
2022/11/19 00:48:01;;;;;;;4.63;4.13;;;5.80;99.90;;;;;;5074098;28;20195;-77
2022/11/19 00:50:27;;;;;;;5.73;4.60;;;5.80;99.90;;;;;;5074295;28;20202;-77
2022/11/19 00:52:52;;;;;;;5.83;4.33;;;5.80;99.90;;;;;;5074412;28;20171;-77
2022/11/19 00:55:18;;;;;;;5.03;4.27;;;5.80;99.90;;;;;;5075723;28;20175;-77
2022/11/19 00:57:43;;;;;;;8.30;5.10;;;5.70;99.90;;;;;;5073898;28;20194;-76
2022/11/19 01:00:10;;;;;;;5.47;4.70;;;5.70;99.90;;;;;;5075428;28;20655;-76
2022/11/19 01:02:35;;;;;;;5.67;4.33;;;5.60;99.90;;;;;;5074810;28;20182;-76
2022/11/19 01:05:01;;;;;;;6.90;4.60;;;5.50;99.90;;;;;;5075299;28;20167;-77
2022/11/19 01:07:26;;;;;;;9.00;4.60;;;5.50;99.90;;;;;;5073954;28;20190;-77
2022/11/19 01:09:52;;;;;;;5.90;4.63;;;5.50;99.90;;;;;;5074043;28;20175;-77
2022/11/19 01:12:17;;;;;;;8.67;5.37;;;5.50;99.90;;;;;;5073726;28;20174;-76
2022/11/19 01:14:43;;;;;;;6.27;4.33;;;5.40;99.90;;;;;;5075742;28;20659;-77
2022/11/19 01:17:09;;;;;;;6.10;4.40;;;5.40;99.90;;;;;;5074952;28;20692;-77
2022/11/19 01:19:35;;;;;;;5.70;4.30;;;5.30;99.90;;;;;;5073691;28;20182;-77
2022/11/19 01:22:00;;;;;;;6.33;4.60;;;5.40;99.90;;;;;;5073607;28;20213;-77
2022/11/19 01:24:26;;;;;;;5.73;4.13;;;5.40;99.90;;;;;;5073567;28;20522;-76
2022/11/19 01:26:51;;;;;;;7.77;4.83;;;5.30;99.90;;;;;;5074919;28;20182;-77
2022/11/19 01:29:17;;;;;;;5.13;4.37;;;5.40;99.90;;;;;;5075322;28;20195;-77
2022/11/19 01:31:42;;;;;;;6.40;4.30;;;5.30;99.90;;;;;;5075037;28;20171;-76
2022/11/19 01:34:08;;;;;;;6.60;4.73;;;5.40;99.90;;;;;;5074800;28;20175;-77
2022/11/19 01:36:33;;;;;;;5.97;4.27;;;5.30;99.90;;;;;;5074809;28;20175;-77
2022/11/19 01:38:59;;;;;;;5.50;4.23;;;5.30;99.90;;;;;;5074465;28;20244;-76
2022/11/19 01:41:29;;;;;;;6.83;4.60;;;5.30;99.90;;;;;;5073126;28;20640;-77
2022/11/19 01:43:58;;;;;;;7.53;4.40;;;5.20;99.90;;;;;;5074951;28;20657;-77
2022/11/19 01:46:35;;;;;;;6.10;4.30;;;5.10;99.90;;;;;;5073437;28;20179;-77
2022/11/19 01:49:03;;;;;;;6.47;4.70;;;5.10;99.90;;;;;;5072972;28;20198;-77
2022/11/19 01:51:37;;;;;;;7.50;5.13;;;5.10;99.90;;;;;;5072928;28;20240;-76
2022/11/19 01:54:16;;;;;;;6.73;5.07;;;5.10;99.90;;;;;;5074168;28;20183;-76
2022/11/19 01:56:42;;;;;;;7.97;5.03;;;5.10;99.90;;;;;;5074297;28;20178;-76
2022/11/19 01:59:14;;;;;;;6.43;4.80;;;5.10;99.90;;;;;;5074129;28;20193;-77
2022/11/19 02:01:42;;;;;;;7.50;5.27;;;5.00;99.90;;;;;;5074013;28;20597;-77
2022/11/19 02:04:08;;;;;;;8.27;4.83;;;5.00;99.90;;;;;;5073961;28;20325;-76
2022/11/19 02:06:34;;;;;;;8.43;5.43;;;5.00;99.90;;;;;;5073993;28;20273;-76
2022/11/19 02:08:59;;;;;;;8.07;6.13;;;5.00;99.90;;;;;;5074122;28;20202;-76
2022/11/19 02:11:27;;;;;;;7.27;5.60;;;4.90;99.90;;;;;;5072701;28;20190;-77
2022/11/19 02:14:26;;;;;;;12.07;5.97;;;4.90;99.90;;;;;;5073616;28;20232;-77
2022/11/19 02:17:04;;;;;;;8.93;6.43;;;4.90;99.90;;;;;;5074083;28;20181;-77
2022/11/19 02:20:13;;;;;;;9.10;6.33;;;4.80;99.90;;;;;;5073794;28;20164;-77
2022/11/19 02:22:56;;;;;;;7.03;5.27;;;4.80;99.90;;;;;;5074161;28;20163;-77
2022/11/19 02:25:41;;;;;;;11.37;6.43;;;4.80;99.90;;;;;;5072541;28;20275;-77
2022/11/19 02:28:26;;;;;;;9.90;6.40;;;4.80;99.90;;;;;;5072120;28;20717;-77
2022/11/19 02:30:59;;;;;;;9.57;6.50;;;4.70;99.90;;;;;;5074128;28;20155;-77
2022/11/19 02:33:58;;;;;;;11.57;6.40;;;4.80;99.90;;;;;;5073775;28;20687;-77
2022/11/19 02:36:42;;;;;;;11.57;7.23;;;4.70;99.90;;;;;;5073920;28;20250;-77
2022/11/19 02:39:22;;;;;;;17.33;7.20;;;4.70;99.90;;;;;;5073319;28;20207;-76
2022/11/19 02:41:54;;;;;;;14.47;7.60;;;4.70;99.90;;;;;;5073406;28;20205;-76
2022/11/19 02:47:30;;;;;;;11.63;7.77;;;4.60;99.90;;;;;;5073667;28;20212;-77
2022/11/19 02:50:01;;;;;;;10.77;7.40;;;4.70;99.90;;;;;;5073215;28;20189;-77
2022/11/19 02:52:27;;;;;;;12.57;8.10;;;4.70;99.90;;;;;;5073051;28;20224;-77
2022/11/19 02:54:53;;;;;;;14.67;8.63;;;4.60;99.90;;;;;;5071915;28;20182;-76
2022/11/19 02:57:18;;;;;;;12.97;8.77;;;4.60;99.90;;;;;;5071759;28;20175;-77
2022/11/19 03:05:46;;;;;;;18.17;9.07;;;4.50;99.90;;;;;;5073329;28;20708;-76
2022/11/19 03:08:11;;;;;;;15.20;9.97;;;4.50;99.90;;;;;;5072902;28;20221;-75
2022/11/19 03:10:53;;;;;;;15.23;9.17;;;4.50;99.90;;;;;;5072891;28;20657;-75
2022/11/19 03:16:59;;;;;;;17.03;10.67;;;4.40;99.90;;;;;;5067328;28;20217;-76
2022/11/19 03:19:43;;;;;;;14.93;9.67;;;4.40;99.90;;;;;;5071451;28;20195;-76
2022/11/19 03:22:20;;;;;;;13.50;9.53;;;4.40;99.90;;;;;;5072002;28;20213;-75
2022/11/19 03:25:00;;;;;;;15.23;9.57;;;4.40;99.90;;;;;;5074513;28;20635;-75
2022/11/19 03:27:35;;;;;;;15.53;10.33;;;4.40;99.90;;;;;;5075512;28;20188;-76
2022/11/19 03:30:03;;;;;;;19.33;10.93;;;4.40;99.90;;;;;;5076820;28;20147;-76
2022/11/19 03:32:34;;;;;;;16.70;9.90;;;4.30;99.90;;;;;;5077087;28;20174;-76
2022/11/19 03:35:06;;;;;;;15.37;9.90;;;4.40;99.90;;;;;;5076947;28;20528;-76
2022/11/19 03:37:34;;;;;;;14.70;9.80;;;4.40;99.90;;;;;;5076572;28;20264;-75
2022/11/19 03:40:01;;;;;;;19.37;11.37;;;4.40;99.90;;;;;;5076808;28;20505;-76
2022/11/19 03:42:27;;;;;;;18.40;12.00;;;4.30;99.90;;;;;;5076465;28;20195;-76
2022/11/19 03:45:02;;;;;;;17.43;11.03;;;4.30;99.90;;;;;;5076730;28;20528;-75
2022/11/19 03:47:35;;;;;;;17.93;11.50;;;4.20;99.90;;;;;;5076400;28;20197;-75
2022/11/19 03:50:20;;;;;;;20.33;12.37;;;4.20;99.90;;;;;;5076386;28;20179;-75
2022/11/19 03:52:46;;;;;;;23.20;12.10;;;4.20;99.90;;;;;;5076621;28;20220;-75
2022/11/19 03:55:11;;;;;;;23.93;12.80;;;4.20;99.90;;;;;;5076337;28;20171;-76
2022/11/19 03:57:37;;;;;;;19.53;12.43;;;4.20;99.90;;;;;;5076186;28;20594;-75
2022/11/19 04:00:04;;;;;;;17.50;11.63;;;4.20;99.90;;;;;;5076190;28;20537;-76
2022/11/19 04:02:29;;;;;;;22.17;12.83;;;4.10;99.90;;;;;;5074745;28;20199;-76
2022/11/19 04:04:55;;;;;;;19.30;12.53;;;4.10;99.90;;;;;;5076082;28;20224;-75
2022/11/19 04:07:22;;;;;;;21.07;13.63;;;4.10;99.90;;;;;;5075921;28;20228;-76
2022/11/19 04:09:48;;;;;;;18.37;12.43;;;4.10;99.90;;;;;;5076232;28;20175;-78
2022/11/19 04:12:22;;;;;;;19.47;12.97;;;4.10;99.90;;;;;;5074691;28;20253;-75
2022/11/19 04:14:48;;;;;;;18.00;11.80;;;4.10;99.90;;;;;;5075800;28;20208;-75
2022/11/19 04:17:15;;;;;;;18.93;12.50;;;4.10;99.90;;;;;;5074684;28;20178;-75
2022/11/19 04:19:41;;;;;;;22.00;12.33;;;4.10;99.90;;;;;;5075720;28;20533;-76
2022/11/19 04:22:06;;;;;;;19.27;12.53;;;4.10;99.90;;;;;;5074434;28;20202;-76
2022/11/19 04:24:32;;;;;;;21.80;12.87;;;4.10;99.90;;;;;;5074523;28;20179;-76
2022/11/19 04:26:57;;;;;;;21.03;12.33;;;4.00;99.90;;;;;;5075750;28;20647;-75
2022/11/19 04:29:23;;;;;;;20.40;12.07;;;4.10;99.90;;;;;;5075584;28;20202;-76
2022/11/19 04:31:48;;;;;;;21.83;12.87;;;4.10;99.90;;;;;;5075921;28;20185;-76
2022/11/19 04:34:14;;;;;;;22.60;13.27;;;4.10;99.90;;;;;;5075712;28;20228;-75
2022/11/19 04:36:41;;;;;;;23.07;13.50;;;4.10;99.90;;;;;;5072914;28;20186;-75
2022/11/19 04:39:08;;;;;;;22.40;13.73;;;4.10;99.90;;;;;;5074065;28;20218;-75
2022/11/19 04:41:34;;;;;;;17.27;12.23;;;4.10;99.90;;;;;;5074086;28;20207;-75
2022/11/19 04:44:00;;;;;;;18.37;12.77;;;4.10;99.90;;;;;;5074172;28;20174;-76
2022/11/19 04:46:26;;;;;;;22.00;13.77;;;4.10;99.90;;;;;;5075340;28;20203;-75
2022/11/19 04:48:51;;;;;;;23.90;12.77;;;4.10;99.90;;;;;;5075351;28;20679;-75
2022/11/19 04:51:17;;;;;;;19.93;13.70;;;4.10;99.90;;;;;;5074066;28;20266;-76
2022/11/19 04:53:42;;;;;;;20.07;13.90;;;4.10;99.90;;;;;;5075300;28;20258;-75
2022/11/19 04:56:08;;;;;;;23.27;14.10;;;4.00;99.90;;;;;;5075223;28;20174;-76
2022/11/19 04:58:34;;;;;;;24.83;14.03;;;4.00;99.90;;;;;;5075171;28;20201;-76
2022/11/19 05:01:00;;;;;;;22.23;13.47;;;4.00;99.90;;;;;;5074978;28;20199;-76
2022/11/19 05:03:25;;;;;;;22.97;14.73;;;4.00;99.90;;;;;;5073781;28;20189;-75
2022/11/19 05:05:51;;;;;;;23.80;15.40;;;4.00;99.90;;;;;;5073722;28;20175;-75
2022/11/19 05:08:16;;;;;;;24.27;14.73;;;4.00;99.90;;;;;;5077137;28;20218;-78
2022/11/19 05:10:45;;;;;;;19.83;13.53;;;4.00;99.90;;;;;;5074538;28;20245;-76
2022/11/19 05:13:11;;;;;;;19.90;13.30;;;4.00;99.90;;;;;;5074926;28;20666;-76
2022/11/19 05:15:36;;;;;;;22.37;15.00;;;4.00;99.90;;;;;;5073531;28;20225;-76
2022/11/19 05:18:02;;;;;;;22.30;15.30;;;3.90;99.90;;;;;;5073301;28;20237;-75
2022/11/19 05:20:27;;;;;;;20.87;14.73;;;3.80;99.90;;;;;;5075488;28;20175;-75
2022/11/19 05:22:53;;;;;;;22.10;15.53;;;3.90;99.90;;;;;;5074668;28;20678;-75
2022/11/19 05:25:18;;;;;;;22.67;14.80;;;3.80;99.90;;;;;;5074622;28;20549;-75
2022/11/19 05:27:44;;;;;;;22.47;14.17;;;3.80;99.90;;;;;;5074411;28;20281;-75
2022/11/19 05:30:10;;;;;;;20.40;14.53;;;3.70;99.90;;;;;;5076031;28;20171;-78
2022/11/19 05:32:36;;;;;;;22.83;14.50;;;3.70;99.90;;;;;;5073875;28;20229;-75
2022/11/19 05:35:03;;;;;;;22.23;14.47;;;3.70;99.90;;;;;;5073244;28;20171;-76
2022/11/19 05:40:01;;;;;;;21.63;14.73;;;3.80;99.90;;;;;;5112208;22;20238;-78
2022/11/19 05:42:27;;;;;;;21.73;14.60;;;3.70;99.90;;;;;;5077086;28;20542;-79
2022/11/19 05:44:52;;;;;;;21.17;14.27;;;3.70;99.90;;;;;;5075245;28;20167;-78
2022/11/19 05:47:18;;;;;;;19.03;14.57;;;3.80;99.90;;;;;;5075962;28;20216;-79
2022/11/19 05:49:43;;;;;;;22.37;14.80;;;3.80;99.90;;;;;;5074506;28;20221;-78
2022/11/19 05:52:09;;;;;;;24.83;15.70;;;3.70;99.90;;;;;;5076765;28;20618;-78
2022/11/19 05:54:35;;;;;;;21.53;15.13;;;3.70;99.90;;;;;;5075473;28;20175;-79
2022/11/19 05:57:01;;;;;;;21.73;14.70;;;3.70;99.90;;;;;;5074188;28;20182;-77
2022/11/19 05:59:26;;;;;;;20.23;14.07;;;3.70;99.90;;;;;;5075531;28;20283;-78
2022/11/19 06:01:52;;;;;;;20.30;13.90;;;3.70;99.90;;;;;;5073956;28;20555;-79
2022/11/19 06:04:17;;;;;;;22.30;15.10;;;3.70;99.90;;;;;;5075536;28;20179;-78
2022/11/19 06:06:43;;;;;;;26.47;15.50;;;3.70;99.90;;;;;;5073817;28;20202;-78
2022/11/19 06:09:08;;;;;;;19.47;13.87;;;3.70;99.90;;;;;;5075431;28;20209;-78
2022/11/19 06:11:46;;;;;;;20.73;15.50;;;3.70;99.90;;;;;;5075264;28;20229;-78
2022/11/19 06:14:22;;;;;;;20.07;15.07;;;3.70;99.90;;;;;;5074160;28;20208;-77
2022/11/19 06:16:53;;;;;;;20.70;14.30;;;3.60;99.90;;;;;;5075338;28;20167;-79
2022/11/19 06:19:18;;;;;;;21.27;14.23;;;3.60;99.90;;;;;;5074871;28;20203;-79
2022/11/19 06:21:44;;;;;;;22.47;13.77;;;3.60;99.90;;;;;;5075591;28;20197;-77
2022/11/19 06:24:11;;;;;;;21.60;14.70;;;3.60;99.90;;;;;;5073592;28;20586;-77
2022/11/19 06:26:37;;;;;;;20.90;15.03;;;3.60;99.90;;;;;;5074608;28;20197;-77
2022/11/19 06:29:02;;;;;;;19.50;14.00;;;3.60;99.90;;;;;;5073543;28;20289;-77
2022/11/19 06:31:28;;;;;;;24.37;15.53;;;3.60;99.90;;;;;;5075477;28;20171;-78
2022/11/19 06:33:54;;;;;;;24.30;15.50;;;3.60;99.90;;;;;;5085015;28;20250;-78
2022/11/19 06:36:20;;;;;;;23.47;15.57;;;3.60;99.90;;;;;;5085941;28;20171;-78
2022/11/19 06:38:45;;;;;;;22.07;15.20;;;3.60;99.90;;;;;;5086250;28;20221;-78
2022/11/19 06:41:11;;;;;;;22.50;15.27;;;3.60;99.90;;;;;;5086134;28;20194;-78
2022/11/19 06:43:37;;;;;;;23.20;15.10;;;3.60;99.90;;;;;;5086448;28;20201;-76
2022/11/19 06:46:03;;;;;;;21.67;15.13;;;3.60;99.90;;;;;;5080442;28;20179;-79
2022/11/19 06:48:28;;;;;;;25.60;15.57;;;3.60;99.90;;;;;;5077977;28;20187;-78
2022/11/19 06:50:54;;;;;;;25.47;15.33;;;3.60;99.90;;;;;;5078014;28;20197;-77
2022/11/19 06:53:20;;;;;;;23.40;15.63;;;3.50;99.90;;;;;;5075712;28;20179;-79
2022/11/19 06:55:45;;;;;;;23.77;15.50;;;3.50;99.90;;;;;;5069439;28;20182;-79
2022/11/19 06:58:12;;;;;;;22.37;15.20;;;3.40;99.90;;;;;;5073668;28;20696;-78
2022/11/19 07:00:37;;;;;;;23.33;15.53;;;3.50;99.90;;;;;;5064915;28;20217;-79
2022/11/19 07:03:03;;;;;;;23.63;15.90;;;3.50;99.90;;;;;;5069190;28;20222;-80
2022/11/19 07:05:28;;;;;;;25.63;16.23;;;3.50;99.90;;;;;;5070440;28;20174;-79
2022/11/19 07:07:54;;;;;;;29.53;17.13;;;3.50;99.90;;;;;;5069959;28;20547;-78
2022/11/19 07:10:19;;;;;;;27.47;15.47;;;3.50;99.90;;;;;;5071312;28;20175;-79
2022/11/19 07:12:45;;;;;;;25.70;16.57;;;3.50;99.90;;;;;;5066659;28;20167;-79
2022/11/19 07:15:11;;;;;;;28.53;17.63;;;3.50;99.90;;;;;;5073377;28;20175;-79
2022/11/19 07:17:36;;;;;;;27.37;16.97;;;3.50;99.90;;;;;;5077270;28;20175;-79
2022/11/19 07:20:06;;;;;;;28.33;15.77;;;3.40;99.90;;;;;;5076056;28;20568;-79
2022/11/19 07:22:32;;;;;;;24.87;15.50;;;3.50;99.90;;;;;;5077060;28;20192;-79
2022/11/19 07:24:57;;;;;;;28.17;15.27;;;3.50;99.90;;;;;;5077977;28;20171;-79
2022/11/19 07:27:23;;;;;;;25.40;16.47;;;3.50;99.90;;;;;;5077369;28;20219;-79
2022/11/19 07:29:48;;;;;;;24.30;15.83;;;3.50;99.90;;;;;;5077377;28;20245;-79
2022/11/19 07:32:14;;;;;;;24.53;16.20;;;3.40;99.90;;;;;;5077376;28;20180;-78
2022/11/19 07:34:39;;;;;;;28.43;16.13;;;3.40;99.90;;;;;;5076437;28;20175;-77
2022/11/19 07:37:05;;;;;;;29.37;15.47;;;3.40;99.90;;;;;;5076030;28;20182;-79
2022/11/19 07:39:30;;;;;;;23.33;16.17;;;3.40;99.90;;;;;;5075709;28;20202;-80
2022/11/19 07:44:40;;;;;;;25.57;15.80;;;3.40;99.90;;;;;;5076741;28;20167;-76
2022/11/19 07:47:06;;;;;;;23.13;14.37;;;3.40;99.90;;;;;;5077204;28;20167;-79
2022/11/19 07:49:32;;;;;;;23.73;15.53;;;3.40;99.90;;;;;;5075076;28;20189;-77
2022/11/19 07:51:58;;;;;;;22.30;14.30;;;3.30;99.90;;;;;;5073742;28;20175;-77
2022/11/19 07:54:23;;;;;;;21.87;14.77;;;3.50;99.90;;;;;;5074129;28;20194;-79
2022/11/19 07:56:49;;;;;;;21.80;14.37;;;3.40;99.90;;;;;;5076466;28;20171;-80
2022/11/19 07:59:15;;;;;;;25.30;16.07;;;3.40;99.90;;;;;;5074207;28;20203;-77
2022/11/19 08:01:41;;;;;;;23.77;14.73;;;3.40;99.90;;;;;;5074661;28;20206;-78
2022/11/19 08:04:06;;;;;;;26.87;15.20;;;3.40;99.90;;;;;;5076766;28;20225;-79
2022/11/19 08:06:33;;;;;;;21.87;14.27;;;3.40;99.90;;;;;;5074913;28;20659;-77
2022/11/19 08:09:00;;;;;;;21.67;13.63;;;3.40;99.90;;;;;;5073716;28;20201;-78
2022/11/19 08:11:25;;;;;;;21.87;14.40;;;3.50;99.90;;;;;;5077362;28;20178;-78
2022/11/19 08:13:51;;;;;;;22.70;14.23;;;3.50;99.90;;;;;;5078797;28;20539;-77
2022/11/19 08:19:09;;;;;;;23.43;14.60;;;3.40;99.90;;;;;;5078591;28;20671;-78
2022/11/19 08:21:35;;;;;;;25.67;14.23;;;3.40;99.90;;;;;;5077921;28;20191;-77
2022/11/19 08:24:02;;;;;;;22.13;13.80;;;3.40;99.90;;;;;;5082943;28;20163;-77
2022/11/19 08:26:27;;;;;;;20.73;13.77;;;3.40;99.90;;;;;;5081109;28;20186;-78
2022/11/19 08:28:53;;;;;;;21.43;13.40;;;3.50;99.90;;;;;;5081539;28;20600;-81
2022/11/19 08:31:19;;;;;;;20.27;12.87;;;3.50;99.90;;;;;;5078488;28;20175;-79
2022/11/19 08:33:44;;;;;;;22.03;13.83;;;3.50;99.90;;;;;;5078885;28;20708;-80
2022/11/19 08:36:10;;;;;;;20.10;13.27;;;3.50;99.90;;;;;;5077029;28;20641;-79
2022/11/19 08:38:36;;;;;;;21.53;14.20;;;3.50;99.90;;;;;;5078758;28;20214;-79
2022/11/19 08:43:45;;;;;;;18.17;12.67;;;3.50;99.90;;;;;;5078702;28;20201;-77
2022/11/19 08:46:11;;;;;;;20.70;13.63;;;3.50;99.90;;;;;;5078078;28;20175;-78
2022/11/19 08:48:36;;;;;;;18.73;11.93;;;3.40;99.90;;;;;;5078029;28;20191;-79
2022/11/19 08:51:04;;;;;;;19.30;12.57;;;3.40;99.90;;;;;;5076473;28;20261;-78
2022/11/19 08:53:29;;;;;;;20.43;13.50;;;3.50;99.90;;;;;;5078005;28;20178;-78
2022/11/19 08:55:54;;;;;;;21.10;13.03;;;3.40;99.90;;;;;;5078099;28;20167;-78
2022/11/19 08:58:20;;;;;;;18.13;12.67;;;3.40;99.90;;;;;;5078249;28;20571;-78
2022/11/19 09:00:46;;;;;;;19.07;13.87;;;3.50;99.90;;;;;;5076294;28;20202;-77
2022/11/19 09:03:11;;;;;;;22.80;13.43;;;3.40;99.90;;;;;;5078035;28;20591;-78
2022/11/19 09:05:37;;;;;;;18.17;12.63;;;3.50;99.90;;;;;;5076037;28;20167;-77
2022/11/19 09:08:02;;;;;;;19.50;13.23;;;3.40;99.90;;;;;;5075733;28;20614;-78
2022/11/19 09:10:28;;;;;;;19.13;12.97;;;3.40;99.90;;;;;;5077183;28;20195;-78
2022/11/19 09:12:53;;;;;;;18.97;12.10;;;3.40;99.90;;;;;;5077550;28;20666;-78
2022/11/19 09:15:19;;;;;;;19.93;13.30;;;3.40;99.90;;;;;;5077585;28;20178;-79
2022/11/19 09:17:45;;;;;;;18.33;12.57;;;3.40;99.90;;;;;;5077234;28;20199;-78
2022/11/19 09:20:11;;;;;;;20.73;13.20;;;3.40;99.90;;;;;;5076215;28;20175;-79
2022/11/19 09:22:37;;;;;;;23.17;13.33;;;3.40;99.90;;;;;;5075988;28;20196;-76
2022/11/19 09:25:03;;;;;;;20.53;13.37;;;3.40;99.90;;;;;;5075841;28;20166;-78
2022/11/19 09:27:28;;;;;;;21.73;13.93;;;3.30;99.90;;;;;;5077227;28;20163;-78
2022/11/19 09:29:54;;;;;;;21.73;14.83;;;3.40;99.90;;;;;;5075278;28;20687;-78
2022/11/19 09:32:19;;;;;;;19.60;13.37;;;3.30;99.90;;;;;;5076925;28;20182;-78
2022/11/19 09:34:45;;;;;;;23.48;17.58;;;3.40;99.90;;;;;;5074904;28;20406;-78
2022/11/19 09:37:11;;;;;;;22.73;15.33;;;3.30;99.90;;;;;;5076973;28;20175;-78
2022/11/19 09:39:36;;;;;;;21.17;14.07;;;3.30;99.90;;;;;;5076464;28;20685;-78
2022/11/19 09:42:22;;;;;;;21.30;13.73;;;3.20;99.90;;;;;;5075305;28;20249;-77
2022/11/19 09:44:50;;;;;;;24.60;13.00;;;3.20;99.90;;;;;;5075404;28;20171;-78
2022/11/19 09:47:25;;;;;;;21.57;14.37;;;3.20;99.90;;;;;;5074137;28;20171;-77
2022/11/19 09:50:10;;;;;;;20.93;13.63;;;3.20;99.90;;;;;;5075201;28;20208;-78
2022/11/19 09:52:43;;;;;;;20.50;13.97;;;3.20;99.90;;;;;;5075209;28;20527;-77
2022/11/19 09:55:19;;;;;;;23.73;14.17;;;3.20;99.90;;;;;;5073827;28;20167;-77
2022/11/19 09:57:50;;;;;;;20.80;14.13;;;3.20;99.90;;;;;;5074917;28;20218;-77
2022/11/19 10:00:19;;;;;;;20.30;13.87;;;3.20;99.90;;;;;;5073715;28;20197;-78
2022/11/19 10:02:44;;;;;;;20.63;14.10;;;3.20;99.90;;;;;;5074536;28;20195;-77
2022/11/19 10:05:14;;;;;;;22.20;13.73;;;3.20;99.90;;;;;;5073565;28;20224;-78
2022/11/19 10:08:09;;;;;;;21.30;13.50;;;3.20;99.90;;;;;;5073885;28;20532;-77
2022/11/19 10:10:39;;;;;;;18.00;11.70;;;3.10;99.90;;;;;;5073171;28;20311;-77
2022/11/19 10:13:21;;;;;;;19.80;13.53;;;3.00;99.90;;;;;;5074820;28;20462;-77
2022/11/19 10:16:05;;;;;;;19.17;12.73;;;3.00;99.90;;;;;;5074206;28;20640;-77
2022/11/19 10:18:46;;;;;;;19.80;12.53;;;3.00;99.90;;;;;;5074149;28;20190;-77
2022/11/19 10:21:28;;;;;;;19.93;13.07;;;3.00;99.90;;;;;;5074017;28;20601;-75
2022/11/19 10:24:16;;;;;;;22.63;12.60;;;3.00;99.90;;;;;;5074224;28;20163;-78
2022/11/19 10:26:52;;;;;;;20.63;13.53;;;3.00;99.90;;;;;;5073945;28;20174;-76
2022/11/19 10:29:24;;;;;;;19.10;12.97;;;3.00;99.90;;;;;;5075187;28;20285;-78
2022/11/19 10:31:50;;;;;;;20.93;12.83;;;3.00;99.90;;;;;;5075265;28;20227;-78
2022/11/19 10:34:21;;;;;;;19.90;12.33;;;3.10;99.90;;;;;;5073120;28;20175;-77
2022/11/19 10:36:56;;;;;;;23.63;13.93;;;3.10;99.90;;;;;;5075176;28;20154;-79
2022/11/19 10:39:28;;;;;;;20.13;13.90;;;3.00;99.90;;;;;;5075011;28;20714;-78
2022/11/19 10:42:22;;;;;;;18.33;12.57;;;3.00;99.90;;;;;;5074213;28;20187;-78
2022/11/19 10:44:48;;;;;;;21.97;14.00;;;3.10;99.90;;;;;;5072970;28;20175;-78
2022/11/19 10:47:43;;;;;;;20.30;13.17;;;3.10;99.90;;;;;;5074406;28;20174;-77
2022/11/19 10:50:18;;;;;;;16.20;11.53;;;3.10;99.90;;;;;;5074767;28;20200;-78
2022/11/19 10:52:52;;;;;;;18.70;12.97;;;3.20;99.90;;;;;;5075658;28;20182;-79
2022/11/19 10:55:25;;;;;;;18.53;12.20;;;3.20;99.90;;;;;;5075763;28;20170;-78
2022/11/19 10:58:09;;;;;;;17.73;12.10;;;3.20;99.90;;;;;;5076053;28;20155;-78
2022/11/19 11:00:37;;;;;;;19.30;13.10;;;3.20;99.90;;;;;;5074986;28;20177;-77
2022/11/19 11:03:05;;;;;;;17.43;12.10;;;3.20;99.90;;;;;;5074024;28;20166;-77
2022/11/19 11:05:51;;;;;;;19.43;12.33;;;3.20;99.90;;;;;;5074101;28;20199;-77
2022/11/19 11:08:16;;;;;;;17.23;11.93;;;3.20;99.90;;;;;;5073314;28;20210;-78
2022/11/19 11:10:45;;;;;;;18.40;13.13;;;3.20;99.90;;;;;;5073348;28;20175;-78
2022/11/19 11:16:19;;;;;;;16.80;11.87;;;3.30;99.90;;;;;;5075547;28;20296;-78
2022/11/19 11:18:46;;;;;;;16.80;11.37;;;3.20;99.90;;;;;;5074256;28;20186;-78
2022/11/19 11:21:27;;;;;;;18.23;11.53;;;3.20;99.90;;;;;;5074341;28;20190;-78
2022/11/19 11:23:54;;;;;;;16.73;11.40;;;3.10;99.90;;;;;;5075222;28;20218;-78
2022/11/19 11:26:25;;;;;;;19.03;12.00;;;3.10;99.90;;;;;;5075922;28;20607;-78
2022/11/19 11:29:10;;;;;;;19.17;12.47;;;3.10;99.90;;;;;;5074930;28;20201;-78
2022/11/19 11:31:40;;;;;;;15.97;11.20;;;3.20;99.90;;;;;;5075641;28;20160;-78
2022/11/19 11:34:32;;;;;;;17.80;11.83;;;3.20;99.90;;;;;;5074280;28;20258;-78
2022/11/19 11:37:00;;;;;;;18.40;11.80;;;3.30;99.90;;;;;;5073370;28;20551;-78
2022/11/19 11:39:37;;;;;;;17.77;11.57;;;3.40;99.90;;;;;;5085783;28;20203;-77
2022/11/19 11:42:03;;;;;;;17.87;11.80;;;3.40;99.90;;;;;;5082671;28;20199;-77
2022/11/19 11:44:35;;;;;;;15.80;10.70;;;3.40;99.90;;;;;;5074758;28;20182;-78
2022/11/19 11:47:14;;;;;;;16.90;11.20;;;3.40;99.90;;;;;;5077231;28;20732;-77
2022/11/19 11:49:45;;;;;;;16.93;11.57;;;3.50;99.90;;;;;;5076858;28;20684;-77
2022/11/19 11:52:11;;;;;;;14.53;10.60;;;3.50;99.90;;;;;;5077622;28;20166;-78
2022/11/19 11:54:52;;;;;;;14.47;11.00;;;3.50;99.90;;;;;;5077222;28;20175;-79
2022/11/19 11:57:24;;;;;;;18.87;11.87;;;3.50;99.90;;;;;;5077839;28;20210;-75
2022/11/19 11:59:49;;;;;;;15.53;10.27;;;3.60;99.90;;;;;;5075634;28;20281;-77
2022/11/19 12:02:22;;;;;;;18.33;11.87;;;3.70;99.90;;;;;;5081480;28;20226;-78
2022/11/19 12:04:51;;;;;;;15.10;10.70;;;3.70;99.90;;;;;;5081924;28;20175;-83
2022/11/19 12:07:41;;;;;;;14.37;10.13;;;3.70;99.90;;;;;;5077295;28;20175;-79
2022/11/19 12:10:27;;;;;;;16.43;10.53;;;3.70;99.90;;;;;;5077579;28;20171;-81
2022/11/19 12:13:14;;;;;;;14.97;10.47;;;3.80;99.90;;;;;;5076424;28;20170;-78
2022/11/19 12:16:31;;;;;;;14.37;10.63;;;3.80;99.90;;;;;;5075875;28;20171;-79
2022/11/19 12:19:23;;;;;;;14.47;9.47;;;3.80;99.90;;;;;;5042620;28;20238;-77
2022/11/19 12:22:26;;;;;;;12.57;9.37;;;3.80;99.90;;;;;;5076039;28;20660;-79
2022/11/19 12:25:37;;;;;;;15.10;9.67;;;3.80;99.90;;;;;;5079069;28;20155;-80
2022/11/19 12:28:35;;;;;;;13.17;9.60;;;3.80;99.90;;;;;;4979782;28;20197;-79
2022/11/19 12:31:06;;;;;;;14.07;9.90;;;3.80;99.90;;;;;;4995843;28;20268;-78
2022/11/19 12:33:53;;;;;;;14.23;8.87;;;3.90;99.90;;;;;;5055697;28;20649;-79
2022/11/19 12:36:35;;;;;;;13.57;10.30;;;3.80;99.90;;;;;;5076060;28;20308;-77
2022/11/19 12:39:28;;;;;;;11.47;8.80;;;3.90;99.90;;;;;;5074008;28;20222;-77
2022/11/19 12:42:25;;;;;;;13.93;10.07;;;3.80;99.90;;;;;;5075398;28;20187;-77
2022/11/19 12:45:44;;;;;;;15.70;9.43;;;3.90;99.90;;;;;;5075559;28;20166;-78
2022/11/19 12:48:28;;;;;;;12.47;9.03;;;4.00;99.90;;;;;;5003416;28;20306;-77
2022/11/19 12:51:14;;;;;;;13.70;8.83;;;3.90;99.90;;;;;;5075552;28;20574;-78
2022/11/19 12:54:10;;;;;;;15.60;9.17;;;4.00;99.90;;;;;;5075361;28;20257;-77
2022/11/19 12:57:07;;;;;;;10.80;7.90;;;4.00;99.90;;;;;;5074742;28;20582;-78
2022/11/19 12:59:40;;;;;;;12.03;8.70;;;4.10;99.90;;;;;;5075197;28;20553;-78
2022/11/19 13:02:22;;;;;;;11.57;8.27;;;4.00;99.90;;;;;;5075007;28;20607;-77
2022/11/19 13:04:53;;;;;;;11.70;9.10;;;4.00;99.90;;;;;;5073734;28;20163;-78
2022/11/19 13:07:29;;;;;;;14.27;9.43;;;4.00;99.90;;;;;;5074113;28;20170;-77
2022/11/19 13:10:06;;;;;;;12.70;8.73;;;4.00;99.90;;;;;;5074894;28;20190;-77
2022/11/19 13:12:41;;;;;;;11.87;8.20;;;4.00;99.90;;;;;;5074326;28;20269;-79
2022/11/19 13:15:36;;;;;;;12.50;8.43;;;4.00;99.90;;;;;;5076790;28;20238;-79
2022/11/19 13:18:08;;;;;;;11.93;7.93;;;4.00;99.90;;;;;;5047152;28;20207;-79
2022/11/19 13:20:52;;;;;;;12.50;9.37;;;4.10;99.90;;;;;;5077160;28;20628;-79
2022/11/19 13:23:29;;;;;;;14.27;8.23;;;4.10;99.90;;;;;;5078011;28;20159;-79
2022/11/19 13:26:14;;;;;;;11.17;8.27;;;4.10;99.90;;;;;;5075166;28;20261;-77
2022/11/19 13:28:49;;;;;;;12.73;8.87;;;4.10;99.90;;;;;;5074715;28;20237;-76
2022/11/19 13:31:21;;;;;;;11.03;8.33;;;4.10;99.90;;;;;;5074435;28;20163;-77